Terminal Aerodrome Forecast
Issued by NWS Shreveport, LA

Home | Current Version | Previous Version | Text Only | Print | Product List | Glossary On
Versions: 1 2 3 4 5 6 7 8 9 10 11 12 13 14 15 16 17
000
FTUS44 KSHV 312339 AAA
TAFTYR
TAF AMD
KTYR 312339Z 0100/0124 19006KT P6SM VCTS BKN045CB
      TEMPO 0100/0104 3SM TSRA BR BKN023CB
     FM010400 VRB03KT P6SM SCT040 BKN150 BKN250
     FM011100 VRB03KT P6SM VCSH BKN040 BKN140
     FM011500 16006KT P6SM VCTS BKN025CB BKN140
     FM011700 16007KT P6SM VCTS BKN040CB=

USA.gov is the U.S. government's official web portal to all federal, state and local government web resources and services.